sensor_id;sensor_type;location;lat;lon;timestamp;pressure;altitude;pressure_sealevel;temperature;humidity
61645;BME280;47553;52.428;13.382;2022-07-22T00:00:46;101155.69;;;20.20;90.84
61645;BME280;47553;52.428;13.382;2022-07-22T00:02:47;101163.94;;;20.09;90.77
61645;BME280;47553;52.428;13.382;2022-07-22T00:04:49;101173.22;;;20.16;90.12
61645;BME280;47553;52.428;13.382;2022-07-22T00:06:51;101167.50;;;20.09;91.11
61645;BME280;47553;52.428;13.382;2022-07-22T00:08:52;101169.22;;;20.10;91.37
61645;BME280;47553;52.428;13.382;2022-07-22T00:10:54;101168.66;;;20.16;90.70
61645;BME280;47553;52.428;13.382;2022-07-22T00:12:56;101171.22;;;20.18;90.58
61645;BME280;47553;52.428;13.382;2022-07-22T00:14:58;101176.81;;;20.26;90.27
61645;BME280;47553;52.428;13.382;2022-07-22T00:17:01;101178.06;;;20.22;90.39
61645;BME280;47553;52.428;13.382;2022-07-22T00:19:02;101181.25;;;20.27;89.83
61645;BME280;47553;52.428;13.382;2022-07-22T00:21:04;101182.63;;;20.21;89.90
61645;BME280;47553;52.428;13.382;2022-07-22T00:23:11;101185.22;;;20.23;89.68
61645;BME280;47553;52.428;13.382;2022-07-22T00:25:13;101180.63;;;20.14;90.36
61645;BME280;47553;52.428;13.382;2022-07-22T00:27:14;101190.03;;;20.10;90.23
61645;BME280;47553;52.428;13.382;2022-07-22T00:29:16;101182.63;;;20.12;89.93
61645;BME280;47553;52.428;13.382;2022-07-22T00:31:18;101179.91;;;20.02;90.73
61645;BME280;47553;52.428;13.382;2022-07-22T00:33:21;101181.16;;;19.98;91.00
61645;BME280;47553;52.428;13.382;2022-07-22T00:35:22;101189.72;;;19.93;91.44
61645;BME280;47553;52.428;13.382;2022-07-22T00:37:24;101184.03;;;20.06;90.49
61645;BME280;47553;52.428;13.382;2022-07-22T00:39:25;101182.00;;;19.89;92.19
61645;BME280;47553;52.428;13.382;2022-07-22T00:41:27;101189.72;;;19.93;92.00
61645;BME280;47553;52.428;13.382;2022-07-22T00:43:50;101184.00;;;19.87;91.86
61645;BME280;47553;52.428;13.382;2022-07-22T00:45:52;101188.09;;;19.81;92.16
61645;BME280;47553;52.428;13.382;2022-07-22T00:47:54;101191.03;;;19.69;93.20
61645;BME280;47553;52.428;13.382;2022-07-22T00:49:57;101188.19;;;19.70;92.93
61645;BME280;47553;52.428;13.382;2022-07-22T00:51:59;101191.88;;;19.69;93.36
61645;BME280;47553;52.428;13.382;2022-07-22T00:54:02;101189.63;;;19.74;92.55
61645;BME280;47553;52.428;13.382;2022-07-22T00:56:04;101188.19;;;19.70;92.54
61645;BME280;47553;52.428;13.382;2022-07-22T00:58:06;101185.59;;;19.59;92.80
61645;BME280;47553;52.428;13.382;2022-07-22T01:00:11;101198.94;;;19.51;92.77
61645;BME280;47553;52.428;13.382;2022-07-22T01:02:14;101193.44;;;19.62;92.27
61645;BME280;47553;52.428;13.382;2022-07-22T01:04:16;101194.09;;;19.54;92.49
61645;BME280;47553;52.428;13.382;2022-07-22T01:06:19;101199.47;;;19.45;92.97
61645;BME280;47553;52.428;13.382;2022-07-22T01:08:21;101192.34;;;19.44;92.62
61645;BME280;47553;52.428;13.382;2022-07-22T01:10:22;101200.75;;;19.41;92.76
61645;BME280;47553;52.428;13.382;2022-07-22T01:12:24;101191.97;;;19.58;92.23
61645;BME280;47553;52.428;13.382;2022-07-22T01:14:26;101188.13;;;19.51;92.11
61645;BME280;47553;52.428;13.382;2022-07-22T01:16:27;101193.06;;;19.46;92.19
61645;BME280;47553;52.428;13.382;2022-07-22T01:18:29;101190.63;;;19.43;92.38
61645;BME280;47553;52.428;13.382;2022-07-22T01:20:33;101187.38;;;19.49;92.07
61645;BME280;47553;52.428;13.382;2022-07-22T01:22:35;101188.88;;;19.62;91.05
61645;BME280;47553;52.428;13.382;2022-07-22T01:24:37;101193.56;;;19.60;90.76
61645;BME280;47553;52.428;13.382;2022-07-22T01:26:38;101183.88;;;19.58;91.14
61645;BME280;47553;52.428;13.382;2022-07-22T01:28:41;101181.72;;;19.52;91.13
61645;BME280;47553;52.428;13.382;2022-07-22T01:30:42;101187.28;;;19.60;91.29
61645;BME280;47553;52.428;13.382;2022-07-22T01:32:44;101184.59;;;19.60;90.76
61645;BME280;47553;52.428;13.382;2022-07-22T01:34:46;101188.22;;;19.80;89.89
61645;BME280;47553;52.428;13.382;2022-07-22T01:36:49;101190.75;;;19.72;89.98
61645;BME280;47553;52.428;13.382;2022-07-22T01:38:50;101189.44;;;19.66;90.26
61645;BME280;47553;52.428;13.382;2022-07-22T01:40:52;101183.00;;;19.57;90.98
61645;BME280;47553;52.428;13.382;2022-07-22T01:42:53;101185.59;;;19.59;90.69
61645;BME280;47553;52.428;13.382;2022-07-22T01:44:55;101184.47;;;19.71;89.90
61645;BME280;47553;52.428;13.382;2022-07-22T01:46:56;101185.31;;;19.62;90.81
61645;BME280;47553;52.428;13.382;2022-07-22T01:48:58;101187.03;;;19.63;90.42
61645;BME280;47553;52.428;13.382;2022-07-22T01:51:00;101195.84;;;19.65;90.22
61645;BME280;47553;52.428;13.382;2022-07-22T01:53:04;101178.69;;;19.45;91.33
61645;BME280;47553;52.428;13.382;2022-07-22T01:55:07;101189.81;;;19.52;90.97
61645;BME280;47553;52.428;13.382;2022-07-22T01:57:09;101187.59;;;19.67;90.39
61645;BME280;47553;52.428;13.382;2022-07-22T01:59:10;101182.97;;;19.48;91.12
61645;BME280;47553;52.428;13.382;2022-07-22T02:01:12;101180.44;;;19.56;90.43
61645;BME280;47553;52.428;13.382;2022-07-22T02:03:14;101187.56;;;19.57;89.77
61645;BME280;47553;52.428;13.382;2022-07-22T02:05:15;101181.81;;;19.41;90.67
61645;BME280;47553;52.428;13.382;2022-07-22T02:07:17;101185.75;;;19.37;91.21
61645;BME280;47553;52.428;13.382;2022-07-22T02:09:20;101187.72;;;19.35;91.94
61645;BME280;47553;52.428;13.382;2022-07-22T02:11:22;101186.81;;;19.24;92.38
61645;BME280;47553;52.428;13.382;2022-07-22T02:13:23;101189.44;;;19.36;91.34
61645;BME280;47553;52.428;13.382;2022-07-22T02:15:25;101191.94;;;19.27;91.61
61645;BME280;47553;52.428;13.382;2022-07-22T02:17:27;101192.75;;;19.18;92.26
61645;BME280;47553;52.428;13.382;2022-07-22T02:19:28;101197.25;;;19.08;93.09
61645;BME280;47553;52.428;13.382;2022-07-22T02:21:30;101203.31;;;19.21;92.32
61645;BME280;47553;52.428;13.382;2022-07-22T02:23:31;101197.31;;;19.18;92.32
61645;BME280;47553;52.428;13.382;2022-07-22T02:25:34;101194.22;;;19.22;91.95
61645;BME280;47553;52.428;13.382;2022-07-22T02:27:36;101198.75;;;19.22;92.26
61645;BME280;47553;52.428;13.382;2022-07-22T02:29:38;101199.28;;;19.16;92.02
61645;BME280;47553;52.428;13.382;2022-07-22T02:31:39;101204.00;;;19.03;93.32
61645;BME280;47553;52.428;13.382;2022-07-22T02:33:41;101202.25;;;18.92;94.10
61645;BME280;47553;52.428;13.382;2022-07-22T02:35:43;101197.69;;;18.92;94.32
61645;BME280;47553;52.428;13.382;2022-07-22T02:37:44;101200.66;;;18.89;94.38
61645;BME280;47553;52.428;13.382;2022-07-22T02:39:47;101200.31;;;18.83;95.31
61645;BME280;47553;52.428;13.382;2022-07-22T02:41:50;101196.56;;;18.95;94.28
61645;BME280;47553;52.428;13.382;2022-07-22T02:43:51;101200.69;;;19.10;93.75
61645;BME280;47553;52.428;13.382;2022-07-22T02:45:53;101193.28;;;19.12;93.31
61645;BME280;47553;52.428;13.382;2022-07-22T02:47:55;101197.75;;;19.02;93.58
61645;BME280;47553;52.428;13.382;2022-07-22T02:49:57;101209.69;;;18.99;93.60
61645;BME280;47553;52.428;13.382;2022-07-22T02:51:59;101213.22;;;19.11;92.94
61645;BME280;47553;52.428;13.382;2022-07-22T02:54:00;101212.66;;;18.96;93.87
61645;BME280;47553;52.428;13.382;2022-07-22T02:56:02;101201.19;;;19.04;93.11
61645;BME280;47553;52.428;13.382;2022-07-22T02:58:06;101203.69;;;18.96;93.64
61645;BME280;47553;52.428;13.382;2022-07-22T03:00:09;101203.34;;;18.89;94.26
61645;BME280;47553;52.428;13.382;2022-07-22T03:02:11;101209.09;;;18.96;94.28
61645;BME280;47553;52.428;13.382;2022-07-22T03:04:13;101201.84;;;18.76;95.54
61645;BME280;47553;52.428;13.382;2022-07-22T03:06:15;101208.69;;;18.80;94.97
61645;BME280;47553;52.428;13.382;2022-07-22T03:08:16;101203.50;;;18.88;94.93
61645;BME280;47553;52.428;13.382;2022-07-22T03:10:18;101204.47;;;18.87;94.71
61645;BME280;47553;52.428;13.382;2022-07-22T03:12:19;101200.38;;;18.72;95.57
61645;BME280;47553;52.428;13.382;2022-07-22T03:14:22;101204.81;;;18.73;95.86
61645;BME280;47553;52.428;13.382;2022-07-22T03:16:24;101208.28;;;18.63;95.99
61645;BME280;47553;52.428;13.382;2022-07-22T03:18:26;101204.84;;;18.61;96.32
61645;BME280;47553;52.428;13.382;2022-07-22T03:20:27;101204.06;;;18.71;95.36
61645;BME280;47553;52.428;13.382;2022-07-22T03:22:29;101205.00;;;18.49;97.53
61645;BME280;47553;52.428;13.382;2022-07-22T03:24:31;101206.97;;;18.47;97.61
61645;BME280;47553;52.428;13.382;2022-07-22T03:26:32;101203.28;;;18.48;96.98
61645;BME280;47553;52.428;13.382;2022-07-22T03:28:34;101204.41;;;18.45;97.23
61645;BME280;47553;52.428;13.382;2022-07-22T03:30:37;101212.28;;;18.37;98.45
61645;BME280;47553;52.428;13.382;2022-07-22T03:32:38;101213.22;;;18.47;97.57
61645;BME280;47553;52.428;13.382;2022-07-22T03:34:40;101211.78;;;18.43;97.83
61645;BME280;47553;52.428;13.382;2022-07-22T03:36:41;101210.78;;;18.44;97.79
61645;BME280;47553;52.428;13.382;2022-07-22T03:38:43;101212.03;;;18.40;98.85
61645;BME280;47553;52.428;13.382;2022-07-22T03:40:44;101213.38;;;18.46;98.40
61645;BME280;47553;52.428;13.382;2022-07-22T03:42:46;101212.53;;;18.34;98.52
61645;BME280;47553;52.428;13.382;2022-07-22T03:44:47;101220.88;;;18.31;99.08
61645;BME280;47553;52.428;13.382;2022-07-22T03:46:51;101224.81;;;18.38;98.92
61645;BME280;47553;52.428;13.382;2022-07-22T03:48:52;101223.56;;;18.42;97.96
61645;BME280;47553;52.428;13.382;2022-07-22T03:50:54;101229.44;;;18.47;97.33
61645;BME280;47553;52.428;13.382;2022-07-22T03:52:56;101235.34;;;18.41;98.28
61645;BME280;47553;52.428;13.382;2022-07-22T03:54:58;101225.66;;;18.39;98.21
61645;BME280;47553;52.428;13.382;2022-07-22T03:56:59;101228.75;;;18.34;98.58
61645;BME280;47553;52.428;13.382;2022-07-22T03:59:01;101232.19;;;18.36;98.74
61645;BME280;47553;52.428;13.382;2022-07-22T04:01:02;101222.59;;;18.32;98.68
61645;BME280;47553;52.428;13.382;2022-07-22T04:03:05;101227.25;;;18.30;99.37
61645;BME280;47553;52.428;13.382;2022-07-22T04:05:07;101228.63;;;18.24;99.89
61645;BME280;47553;52.428;13.382;2022-07-22T04:07:09;101217.31;;;18.30;99.00
61645;BME280;47553;52.428;13.382;2022-07-22T04:09:10;101232.19;;;18.36;99.34
61645;BME280;47553;52.428;13.382;2022-07-22T04:11:12;101228.59;;;18.47;98.66
61645;BME280;47553;52.428;13.382;2022-07-22T04:13:14;101230.28;;;18.48;98.02
61645;BME280;47553;52.428;13.382;2022-07-22T04:15:15;101230.28;;;18.59;97.70
61645;BME280;47553;52.428;13.382;2022-07-22T04:17:17;101228.69;;;18.56;97.57
61645;BME280;47553;52.428;13.382;2022-07-22T04:19:20;101233.00;;;18.80;95.53
61645;BME280;47553;52.428;13.382;2022-07-22T04:21:21;101235.00;;;18.78;96.49
61645;BME280;47553;52.428;13.382;2022-07-22T04:23:23;101234.41;;;18.95;95.28
61645;BME280;47553;52.428;13.382;2022-07-22T04:25:24;101235.88;;;18.99;94.39
61645;BME280;47553;52.428;13.382;2022-07-22T04:27:26;101226.44;;;18.93;95.28
61645;BME280;47553;52.428;13.382;2022-07-22T04:29:28;101227.59;;;18.80;96.05
61645;BME280;47553;52.428;13.382;2022-07-22T04:31:29;101227.56;;;18.91;95.18
61645;BME280;47553;52.428;13.382;2022-07-22T04:33:31;101230.66;;;18.86;95.98
61645;BME280;47553;52.428;13.382;2022-07-22T04:35:34;101228.06;;;18.85;95.35
61645;BME280;47553;52.428;13.382;2022-07-22T04:37:35;101223.00;;;18.91;95.13
61645;BME280;47553;52.428;13.382;2022-07-22T04:39:37;101223.00;;;18.91;94.78
61645;BME280;47553;52.428;13.382;2022-07-22T04:41:39;101224.47;;;18.95;94.63
61645;BME280;47553;52.428;13.382;2022-07-22T04:43:40;101234.59;;;19.03;94.77
61645;BME280;47553;52.428;13.382;2022-07-22T04:45:42;101236.13;;;18.96;94.96
61645;BME280;47553;52.428;13.382;2022-07-22T04:47:43;101230.03;;;19.15;93.71
61645;BME280;47553;52.428;13.382;2022-07-22T04:49:45;101233.63;;;19.04;94.66
61645;BME280;47553;52.428;13.382;2022-07-22T04:51:48;101232.63;;;19.05;94.76
61645;BME280;47553;52.428;13.382;2022-07-22T04:53:50;101241.53;;;18.96;95.15
61645;BME280;47553;52.428;13.382;2022-07-22T04:55:52;101234.88;;;19.00;95.16
61645;BME280;47553;52.428;13.382;2022-07-22T04:57:55;101234.66;;;18.92;95.09
61645;BME280;47553;52.428;13.382;2022-07-22T04:59:56;101236.72;;;18.99;94.89
61645;BME280;47553;52.428;13.382;2022-07-22T05:01:58;101234.91;;;19.21;94.19
61645;BME280;47553;52.428;13.382;2022-07-22T05:03:59;101238.47;;;19.21;93.85
61645;BME280;47553;52.428;13.382;2022-07-22T05:06:01;101236.56;;;19.12;94.18
61645;BME280;47553;52.428;13.382;2022-07-22T05:08:04;101234.91;;;19.21;93.40
61645;BME280;47553;52.428;13.382;2022-07-22T05:10:06;101229.16;;;19.14;93.61
61645;BME280;47553;52.428;13.382;2022-07-22T05:12:08;101234.03;;;19.20;93.52
61645;BME280;47553;52.428;13.382;2022-07-22T05:14:10;101231.53;;;19.28;93.06
61645;BME280;47553;52.428;13.382;2022-07-22T05:16:11;101242.94;;;19.32;92.53
61645;BME280;47553;52.428;13.382;2022-07-22T05:18:13;101244.06;;;19.29;92.80
61645;BME280;47553;52.428;13.382;2022-07-22T05:20:15;101249.88;;;19.46;91.44
61645;BME280;47553;52.428;13.382;2022-07-22T05:22:16;101239.66;;;19.49;91.53
61645;BME280;47553;52.428;13.382;2022-07-22T05:24:19;101247.81;;;19.59;90.21
61645;BME280;47553;52.428;13.382;2022-07-22T05:26:21;101244.47;;;19.46;91.82
61645;BME280;47553;52.428;13.382;2022-07-22T05:28:27;101250.59;;;19.48;92.18
61645;BME280;47553;52.428;13.382;2022-07-22T05:30:29;101246.50;;;19.33;92.43
61645;BME280;47553;52.428;13.382;2022-07-22T05:32:30;101246.91;;;19.28;92.79
61645;BME280;47553;52.428;13.382;2022-07-22T05:34:32;101239.44;;;19.20;93.44
61645;BME280;47553;52.428;13.382;2022-07-22T05:36:34;101251.72;;;19.24;93.69
61645;BME280;47553;52.428;13.382;2022-07-22T05:38:35;101238.25;;;19.13;94.45
61645;BME280;47553;52.428;13.382;2022-07-22T05:40:38;101250.09;;;19.01;94.97
61645;BME280;47553;52.428;13.382;2022-07-22T05:42:40;101241.28;;;18.99;95.37
61645;BME280;47553;52.428;13.382;2022-07-22T05:44:41;101238.53;;;19.10;95.01
61645;BME280;47553;52.428;13.382;2022-07-22T05:46:43;101245.66;;;19.11;94.91
61645;BME280;47553;52.428;13.382;2022-07-22T05:48:45;101246.94;;;19.38;92.54
61645;BME280;47553;52.428;13.382;2022-07-22T05:50:46;101249.19;;;19.33;92.61
61645;BME280;47553;52.428;13.382;2022-07-22T05:52:49;101249.06;;;19.34;93.08
61645;BME280;47553;52.428;13.382;2022-07-22T05:54:51;101247.56;;;19.20;93.46
61645;BME280;47553;52.428;13.382;2022-07-22T05:56:54;101249.94;;;19.35;93.11
61645;BME280;47553;52.428;13.382;2022-07-22T05:58:55;101245.91;;;19.29;93.42
61645;BME280;47553;52.428;13.382;2022-07-22T06:00:58;101251.28;;;19.40;92.32
61645;BME280;47553;52.428;13.382;2022-07-22T06:02:59;101254.63;;;19.33;92.90
61645;BME280;47553;52.428;13.382;2022-07-22T06:05:01;101239.19;;;19.23;92.65
61645;BME280;47553;52.428;13.382;2022-07-22T06:07:04;101260.03;;;19.33;92.84
61645;BME280;47553;52.428;13.382;2022-07-22T06:09:05;101246.44;;;19.44;92.26
61645;BME280;47553;52.428;13.382;2022-07-22T06:11:07;101254.56;;;19.44;91.74
61645;BME280;47553;52.428;13.382;2022-07-22T06:13:10;101252.13;;;19.41;92.15
61645;BME280;47553;52.428;13.382;2022-07-22T06:15:11;101257.53;;;19.41;92.64
61645;BME280;47553;52.428;13.382;2022-07-22T06:17:13;101258.13;;;19.44;92.21
61645;BME280;47553;52.428;13.382;2022-07-22T06:19:15;101266.09;;;19.46;92.57
61645;BME280;47553;52.428;13.382;2022-07-22T06:21:16;101263.31;;;19.57;91.34
61645;BME280;47553;52.428;13.382;2022-07-22T06:23:18;101257.63;;;19.60;89.87
61645;BME280;47553;52.428;13.382;2022-07-22T06:25:19;101262.78;;;19.63;90.12
61645;BME280;47553;52.428;13.382;2022-07-22T06:27:41;101263.53;;;19.75;89.71
61645;BME280;47553;52.428;13.382;2022-07-22T06:29:44;101265.59;;;19.82;89.69
61645;BME280;47553;52.428;13.382;2022-07-22T06:31:45;101258.38;;;19.92;88.77
61645;BME280;47553;52.428;13.382;2022-07-22T06:33:47;101258.38;;;19.92;88.27
61645;BME280;47553;52.428;13.382;2022-07-22T06:35:49;101253.56;;;20.06;87.98
61645;BME280;47553;52.428;13.382;2022-07-22T06:37:50;101255.00;;;20.10;86.69
61645;BME280;47553;52.428;13.382;2022-07-22T06:40:08;101257.31;;;20.14;86.42
61645;BME280;47553;52.428;13.382;2022-07-22T06:42:10;101259.47;;;20.20;86.88
61645;BME280;47553;52.428;13.382;2022-07-22T06:44:12;101253.38;;;20.28;87.05
61645;BME280;47553;52.428;13.382;2022-07-22T06:46:15;101244.84;;;20.33;85.84
61645;BME280;47553;52.428;13.382;2022-07-22T06:48:17;101251.97;;;20.43;86.13
61645;BME280;47553;52.428;13.382;2022-07-22T06:50:18;101238.00;;;20.38;85.31
61645;BME280;47553;52.428;13.382;2022-07-22T06:52:20;101245.72;;;20.52;84.63
61645;BME280;47553;52.428;13.382;2022-07-22T06:54:22;101242.19;;;20.62;84.50
61645;BME280;47553;52.428;13.382;2022-07-22T06:56:23;101245.75;;;20.72;82.92
61645;BME280;47553;52.428;13.382;2022-07-22T06:58:25;101247.88;;;20.87;82.83
61645;BME280;47553;52.428;13.382;2022-07-22T07:00:27;101248.59;;;20.99;81.88
61645;BME280;47553;52.428;13.382;2022-07-22T07:02:29;101251.16;;;21.20;81.43
61645;BME280;47553;52.428;13.382;2022-07-22T07:04:31;101248.88;;;21.35;80.93
61645;BME280;47553;52.428;13.382;2022-07-22T07:06:33;101248.72;;;21.36;79.66
61645;BME280;47553;52.428;13.382;2022-07-22T07:08:35;101253.72;;;21.41;79.57
61645;BME280;47553;52.428;13.382;2022-07-22T07:10:41;101246.56;;;21.49;78.87
61645;BME280;47553;52.428;13.382;2022-07-22T07:12:43;101248.00;;;21.44;78.61
61645;BME280;47553;52.428;13.382;2022-07-22T07:14:44;101247.41;;;21.50;79.54
61645;BME280;47553;52.428;13.382;2022-07-22T07:17:06;101249.94;;;21.61;78.07
61645;BME280;47553;52.428;13.382;2022-07-22T07:19:09;101255.59;;;21.77;78.12
61645;BME280;47553;52.428;13.382;2022-07-22T07:21:10;101250.06;;;21.69;77.71
61645;BME280;47553;52.428;13.382;2022-07-22T07:23:13;101254.53;;;21.98;76.44
61645;BME280;47553;52.428;13.382;2022-07-22T07:25:15;101249.81;;;22.00;75.74
61645;BME280;47553;52.428;13.382;2022-07-22T07:27:25;101244.91;;;22.03;75.24
61645;BME280;47553;52.428;13.382;2022-07-22T07:29:26;101249.56;;;21.93;75.55
61645;BME280;47553;52.428;13.382;2022-07-22T07:31:28;101244.91;;;22.13;75.43
61645;BME280;47553;52.428;13.382;2022-07-22T07:33:30;101244.69;;;22.24;75.07
61645;BME280;47553;52.428;13.382;2022-07-22T07:35:33;101239.66;;;22.29;74.35
61645;BME280;47553;52.428;13.382;2022-07-22T07:37:34;101238.56;;;22.22;74.42
61645;BME280;47553;52.428;13.382;2022-07-22T07:39:36;101233.59;;;22.35;74.08
61645;BME280;47553;52.428;13.382;2022-07-22T07:41:38;101241.34;;;22.75;72.17
61645;BME280;47553;52.428;13.382;2022-07-22T07:43:39;101237.69;;;23.02;71.52
61645;BME280;47553;52.428;13.382;2022-07-22T07:45:41;101239.03;;;23.24;71.20
61645;BME280;47553;52.428;13.382;2022-07-22T07:47:43;101230.22;;;23.04;70.94
61645;BME280;47553;52.428;13.382;2022-07-22T07:49:45;101239.81;;;23.34;70.37
61645;BME280;47553;52.428;13.382;2022-07-22T07:51:48;101232.44;;;23.27;69.39
61645;BME280;47553;52.428;13.382;2022-07-22T07:53:49;101240.84;;;23.33;69.91
61645;BME280;47553;52.428;13.382;2022-07-22T07:55:51;101237.94;;;23.35;69.95
61645;BME280;47553;52.428;13.382;2022-07-22T07:57:53;101247.22;;;23.50;69.59
61645;BME280;47553;52.428;13.382;2022-07-22T07:59:54;101241.38;;;23.37;69.07
61645;BME280;47553;52.428;13.382;2022-07-22T08:01:56;101246.53;;;23.04;69.69
61645;BME280;47553;52.428;13.382;2022-07-22T08:04:01;101248.63;;;23.28;69.24
61645;BME280;47553;52.428;13.382;2022-07-22T08:06:22;101255.50;;;22.97;70.21
61645;BME280;47553;52.428;13.382;2022-07-22T08:08:25;101247.56;;;22.86;70.57
61645;BME280;47553;52.428;13.382;2022-07-22T08:10:27;101250.44;;;22.84;70.62
61645;BME280;47553;52.428;13.382;2022-07-22T08:12:49;101249.81;;;22.90;71.32
61645;BME280;47553;52.428;13.382;2022-07-22T08:14:50;101253.94;;;22.94;70.53
61645;BME280;47553;52.428;13.382;2022-07-22T08:16:52;101254.25;;;22.91;70.90
61645;BME280;47553;52.428;13.382;2022-07-22T08:18:55;101246.78;;;22.93;71.32
61645;BME280;47553;52.428;13.382;2022-07-22T08:20:58;101256.34;;;22.97;71.30
61645;BME280;47553;52.428;13.382;2022-07-22T08:23:01;101253.00;;;23.03;71.43
61645;BME280;47553;52.428;13.382;2022-07-22T08:25:04;101250.97;;;23.49;70.10
61645;BME280;47553;52.428;13.382;2022-07-22T08:27:06;101251.38;;;23.54;68.11
61645;BME280;47553;52.428;13.382;2022-07-22T08:29:08;101255.34;;;23.42;68.65
61645;BME280;47553;52.428;13.382;2022-07-22T08:31:10;101257.25;;;23.50;67.33
61645;BME280;47553;52.428;13.382;2022-07-22T08:33:11;101252.56;;;23.34;67.16
61645;BME280;47553;52.428;13.382;2022-07-22T08:35:13;101244.03;;;23.29;67.08
61645;BME280;47553;52.428;13.382;2022-07-22T08:37:14;101249.94;;;23.50;67.54
61645;BME280;47553;52.428;13.382;2022-07-22T08:39:16;101251.22;;;23.56;67.33
61645;BME280;47553;52.428;13.382;2022-07-22T08:41:25;101251.81;;;23.76;67.23
61645;BME280;47553;52.428;13.382;2022-07-22T08:43:26;101252.88;;;23.83;65.56
61645;BME280;47553;52.428;13.382;2022-07-22T08:45:28;101250.97;;;24.09;65.39
61645;BME280;47553;52.428;13.382;2022-07-22T08:47:31;101261.00;;;24.00;65.20
61645;BME280;47553;52.428;13.382;2022-07-22T08:49:44;101251.41;;;23.62;65.25
61645;BME280;47553;52.428;13.382;2022-07-22T08:51:46;101252.25;;;23.37;66.97
61645;BME280;47553;52.428;13.382;2022-07-22T08:53:48;101251.63;;;23.25;67.87
61645;BME280;47553;52.428;13.382;2022-07-22T08:55:49;101257.31;;;23.14;67.75
61645;BME280;47553;52.428;13.382;2022-07-22T08:57:52;101253.75;;;23.14;67.59
61645;BME280;47553;52.428;13.382;2022-07-22T08:59:55;101257.16;;;23.16;67.73
61645;BME280;47553;52.428;13.382;2022-07-22T09:02:01;101253.28;;;23.18;68.16
61645;BME280;47553;52.428;13.382;2022-07-22T09:04:03;101257.22;;;23.24;67.53
61645;BME280;47553;52.428;13.382;2022-07-22T09:06:07;101246.97;;;23.18;67.63
61645;BME280;47553;52.428;13.382;2022-07-22T09:08:09;101262.53;;;23.07;67.34
61645;BME280;47553;52.428;13.382;2022-07-22T09:10:13;101260.47;;;23.01;68.49
61645;BME280;47553;52.428;13.382;2022-07-22T09:12:15;101248.88;;;22.99;68.84
61645;BME280;47553;52.428;13.382;2022-07-22T09:14:18;101260.69;;;22.90;69.00
61645;BME280;47553;52.428;13.382;2022-07-22T09:16:38;101253.69;;;22.70;69.66
61645;BME280;47553;52.428;13.382;2022-07-22T09:18:47;101251.44;;;22.65;70.28
61645;BME280;47553;52.428;13.382;2022-07-22T09:20:58;101252.59;;;22.63;70.59
61645;BME280;47553;52.428;13.382;2022-07-22T09:23:00;101250.97;;;22.70;70.17
61645;BME280;47553;52.428;13.382;2022-07-22T09:25:19;101257.81;;;22.74;70.36
61645;BME280;47553;52.428;13.382;2022-07-22T09:27:22;101257.91;;;22.82;69.66
61645;BME280;47553;52.428;13.382;2022-07-22T09:29:25;101255.19;;;22.82;69.73
61645;BME280;47553;52.428;13.382;2022-07-22T09:31:37;101249.19;;;22.96;69.44
61645;BME280;47553;52.428;13.382;2022-07-22T09:33:40;101261.00;;;22.87;69.63
61645;BME280;47553;52.428;13.382;2022-07-22T09:35:43;101263.09;;;22.75;70.42
61645;BME280;47553;52.428;13.382;2022-07-22T09:37:53;101269.63;;;22.83;70.32
61645;BME280;47553;52.428;13.382;2022-07-22T09:40:11;101257.09;;;22.72;71.74
61645;BME280;47553;52.428;13.382;2022-07-22T09:42:13;101259.28;;;22.23;73.45
61645;BME280;47553;52.428;13.382;2022-07-22T09:44:25;101265.66;;;22.32;73.95
61645;BME280;47553;52.428;13.382;2022-07-22T09:46:35;101276.19;;;22.17;74.79
61645;BME280;47553;52.428;13.382;2022-07-22T09:48:37;101286.44;;;21.86;76.29
61645;BME280;47553;52.428;13.382;2022-07-22T09:50:39;101285.72;;;21.94;76.46
61645;BME280;47553;52.428;13.382;2022-07-22T09:52:41;101286.03;;;21.81;77.29
61645;BME280;47553;52.428;13.382;2022-07-22T09:54:43;101289.63;;;21.72;77.08
61645;BME280;47553;52.428;13.382;2022-07-22T09:56:44;101284.44;;;21.78;77.25
61645;BME280;47553;52.428;13.382;2022-07-22T09:58:46;101287.00;;;21.90;76.85
61645;BME280;47553;52.428;13.382;2022-07-22T10:00:51;101286.75;;;21.83;76.62
61645;BME280;47553;52.428;13.382;2022-07-22T10:02:54;101281.22;;;22.12;75.36
61645;BME280;47553;52.428;13.382;2022-07-22T10:04:58;101290.16;;;22.22;75.00
61645;BME280;47553;52.428;13.382;2022-07-22T10:07:01;101285.56;;;22.50;73.62
61645;BME280;47553;52.428;13.382;2022-07-22T10:09:03;101278.16;;;22.70;72.37
61645;BME280;47553;52.428;13.382;2022-07-22T10:11:14;101277.66;;;22.84;71.50
61645;BME280;47553;52.428;13.382;2022-07-22T10:13:17;101286.66;;;23.02;70.12
61645;BME280;47553;52.428;13.382;2022-07-22T10:15:21;101283.84;;;23.30;70.13
61645;BME280;47553;52.428;13.382;2022-07-22T10:17:25;101283.31;;;23.52;69.38
61645;BME280;47553;52.428;13.382;2022-07-22T10:19:27;101279.66;;;23.61;67.65
61645;BME280;47553;52.428;13.382;2022-07-22T10:21:31;101273.00;;;23.90;66.98
61645;BME280;47553;52.428;13.382;2022-07-22T10:23:33;101279.09;;;23.84;67.06
61645;BME280;47553;52.428;13.382;2022-07-22T10:25:48;101274.13;;;24.05;66.03
61645;BME280;47553;52.428;13.382;2022-07-22T10:27:52;101276.97;;;24.29;66.17
61645;BME280;47553;52.428;13.382;2022-07-22T10:29:54;101268.38;;;24.16;65.50
61645;BME280;47553;52.428;13.382;2022-07-22T10:32:22;101266.38;;;24.26;65.47
61645;BME280;47553;52.428;13.382;2022-07-22T10:34:25;101269.91;;;24.19;65.83